Map

Track Data

SID SEASON NUMBER BASIN SUBBASIN NAME ISO_TIME NATURE LAT LON WMO_WIND WMO_PRES WMO_AGENCY TRACK_TYPE DIST2LAND LANDFALL IFLAG USA_AGENCY USA_ATCF_ID USA_LAT USA_LON USA_RECORD USA_STATUS USA_WIND USA_PRES USA_SSHS USA_R34_NE USA_R34_SE USA_R34_SW USA_R34_NW USA_R50_NE USA_R50_SE USA_R50_SW USA_R50_NW USA_R64_NE USA_R64_SE USA_R64_SW USA_R64_NW USA_POCI USA_ROCI USA_RMW USA_EYE TOKYO_LAT TOKYO_LON TOKYO_GRADE TOKYO_WIND TOKYO_PRES TOKYO_R50_DIR TOKYO_R50_LONG TOKYO_R50_SHORT TOKYO_R30_DIR TOKYO_R30_LONG TOKYO_R30_SHORT TOKYO_LAND CMA_LAT CMA_LON CMA_CAT CMA_WIND CMA_PRES HKO_LAT HKO_LON HKO_CAT HKO_WIND HKO_PRES NEWDELHI_LAT NEWDELHI_LON NEWDELHI_GRADE NEWDELHI_WIND NEWDELHI_PRES NEWDELHI_CI NEWDELHI_DP NEWDELHI_POCI REUNION_LAT REUNION_LON REUNION_TYPE REUNION_WIND REUNION_PRES REUNION_TNUM REUNION_CI REUNION_RMW REUNION_R34_NE REUNION_R34_SE REUNION_R34_SW REUNION_R34_NW REUNION_R50_NE REUNION_R50_SE REUNION_R50_SW REUNION_R50_NW REUNION_R64_NE REUNION_R64_SE REUNION_R64_SW REUNION_R64_NW BOM_LAT BOM_LON BOM_TYPE BOM_WIND BOM_PRES BOM_TNUM BOM_CI BOM_RMW BOM_R34_NE BOM_R34_SE BOM_R34_SW BOM_R34_NW BOM_R50_NE BOM_R50_SE BOM_R50_SW BOM_R50_NW BOM_R64_NE BOM_R64_SE BOM_R64_SW BOM_R64_NW BOM_ROCI BOM_POCI BOM_EYE BOM_POS_METHOD BOM_PRES_METHOD NADI_LAT NADI_LON NADI_CAT NADI_WIND NADI_PRES WELLINGTON_LAT WELLINGTON_LON WELLINGTON_WIND WELLINGTON_PRES DS824_LAT DS824_LON DS824_STAGE DS824_WIND DS824_PRES TD9636_LAT TD9636_LON TD9636_STAGE TD9636_WIND TD9636_PRES TD9635_LAT TD9635_LON TD9635_WIND TD9635_PRES TD9635_ROCI NEUMANN_LAT NEUMANN_LON NEUMANN_CLASS NEUMANN_WIND NEUMANN_PRES MLC_LAT MLC_LON MLC_CLASS MLC_WIND MLC_PRES USA_GUST BOM_GUST BOM_GUST_PER REUNION_GUST REUNION_GUST_PER USA_SEAHGT USA_SEARAD_NE USA_SEARAD_SE USA_SEARAD_SW USA_SEARAD_NW STORM_SPEED STORM_DIR
1968209N25157 1968 50 WP MM NOT_NAMED 1968-07-27 00:00:00 TS 24.9000 156.900 main 1945 1908 __O___________ -1 24.9000 156.900 0 1008 7 332
1968209N25157 1968 50 WP MM NOT_NAMED 1968-07-27 03:00:00 TS 25.1975 156.725 main 1908 1871 __P___________ -1 25.1975 156.725 0 1008 7 329
1968209N25157 1968 50 WP MM NOT_NAMED 1968-07-27 06:00:00 TS 25.5000 156.500 main 1871 1826 __O___________ -1 25.5000 156.500 0 1008 8 322
1968209N25157 1968 50 WP MM NOT_NAMED 1968-07-27 09:00:00 TS 25.8076 156.200 main 1826 1782 __P___________ -1 25.8076 156.200 0 1008 8 318
1968209N25157 1968 50 WP MM NOT_NAMED 1968-07-27 12:00:00 TS 26.1000 155.900 main 1782 1752 __O___________ -1 26.1000 155.900 0 1008 7 319
1968209N25157 1968 50 WP MM NOT_NAMED 1968-07-27 15:00:00 TS 26.3274 155.692 main 1752 1715 __P___________ -1 26.3274 155.692 0 1007 6 324
1968209N25157 1968 50 WP MM NOT_NAMED 1968-07-27 18:00:00 TS 26.6000 155.500 main 1715 1671 __O___________ -1 26.6000 155.500 0 1006 8 332
1968209N25157 1968 50 WP MM NOT_NAMED 1968-07-27 21:00:00 TS 27.0500 155.258 main 1664 1613 __P___________ -1 27.0500 155.258 0 1006 10 334
1968209N25157 1968 50 WP MM NOT_NAMED 1968-07-28 00:00:00 TS 27.5000 155.000 main 1613 1577 __O___________ -1 27.5000 155.000 0 1006 9 328
1968209N25157 1968 50 WP MM NOT_NAMED 1968-07-28 03:00:00 TS 27.7799 154.750 main 1570 1540 __P___________ -1 27.7799 154.750 0 1005 7 318
1968209N25157 1968 50 WP MM NOT_NAMED 1968-07-28 06:00:00 TS 28.0000 154.500 main 1540 1511 __O___________ -1 28.0000 154.500 0 1004 7 316
1968209N25157 1968 50 WP MM NOT_NAMED 1968-07-28 09:00:00 TS 28.2500 154.242 main 1504 1468 __P___________ -1 28.2500 154.242 0 1003 7 319
1968209N25157 1968 50 WP MM NOT_NAMED 1968-07-28 12:00:00 TS 28.5000 154.000 main 1468 1439 __O___________ -1 28.5000 154.000 0 1002 6 321
1968209N25157 1968 50 WP MM NOT_NAMED 1968-07-28 15:00:00 TS 28.7198 153.814 main 1439 1404 __P___________ -1 28.7198 153.814 0 1000 6 325
1968209N25157 1968 50 WP MM NOT_NAMED 1968-07-28 18:00:00 TS 29.0000 153.600 main 1404 1354 __O___________ -1 29.0000 153.600 0 998 9 327
1968209N25157 1968 50 WP MM NOT_NAMED 1968-07-28 21:00:00 TS 29.4349 153.288 main 1354 1291 __P___________ -1 29.4349 153.288 0 997 11 326
1968209N25157 1968 50 WP MM NOT_NAMED 1968-07-29 00:00:00 TS 29.9000 152.900 main 1291 1235 __O___________ -1 29.9000 152.900 0 997 11 320
1968209N25157 1968 50 WP MM NOT_NAMED 1968-07-29 03:00:00 TS 30.2800 152.465 main 1235 1176 __P___________ -1 30.2800 152.465 0 996 10 312
1968209N25157 1968 50 WP MM NOT_NAMED 1968-07-29 06:00:00 TS 30.6000 152.000 main 1176 1126 __O___________ -1 30.6000 152.000 1 29 996 10 306
1968209N25157 1968 50 WP MM NOT_NAMED 1968-07-29 09:00:00 TS 30.8650 151.535 main 1118 1074 __P___________ -1 30.8650 151.535 1 29 996 9 303
1968209N25157 1968 50 WP MM NOT_NAMED 1968-07-29 12:00:00 TS 31.1000 151.100 main 1074 1038 __O___________ -1 31.1000 151.100 1 29 996 8 304
1968209N25157 1968 50 WP MM NOT_NAMED 1968-07-29 15:00:00 TS 31.3273 150.734 main 1030 988 __P___________ -1 31.3273 150.734 1 29 995 8 310
1968209N25157 1968 50 WP MM NOT_NAMED 1968-07-29 18:00:00 TS 31.6000 150.400 main 988 942 __O___________ -1 31.6000 150.400 1 29 995 9 318
1968209N25157 1968 50 WP MM NOT_NAMED 1968-07-29 21:00:00 TS 31.9925 150.043 main 934 888 __P___________ -1 31.9925 150.043 1 29 994 10 323
1968209N25157 1968 50 WP MM NOT_NAMED 1968-07-30 00:00:00 TS 32.4000 149.700 main 888 848 __O___________ -1 32.4000 149.700 1 29 994 9 323
1968209N25157 1968 50 WP MM NOT_NAMED 1968-07-30 03:00:00 TS 32.6845 149.429 main 848 808 __P___________ -1 32.6845 149.429 1 29 993 8 320
1968209N25157 1968 50 WP MM NOT_NAMED 1968-07-30 06:00:00 TS 33.0000 149.100 main 808 748 __O___________ -1 33.0000 149.100 1 29 993 11 316
1968209N25157 1968 50 WP MM NOT_NAMED 1968-07-30 09:00:00 TS 33.4707 148.536 main 735 673 __P___________ -1 33.4707 148.536 1 29 992 14 317
1968209N25157 1968 50 WP MM NOT_NAMED 1968-07-30 12:00:00 TS 34.0000 148.000 main 673 631 __O___________ -1 34.0000 148.000 1 29 992 12 327
1968209N25157 1968 50 WP MM NOT_NAMED 1968-07-30 15:00:00 TS 34.4996 147.717 main 631 611 __P___________ -1 34.4996 147.717 1 29 992 11 342
1968209N25157 1968 50 WP MM NOT_NAMED 1968-07-30 18:00:00 TS 35.0000 147.600 main 611 595 __O___________ -1 35.0000 147.600 1 29 992 11 349
1968209N25157 1968 50 WP MM NOT_NAMED 1968-07-30 21:00:00 TS 35.5369 147.473 main 595 592 __P___________ -1 35.5369 147.473 1 29 993 10 1
1968209N25157 1968 50 WP MM NOT_NAMED 1968-07-31 00:00:00 TS 36.0000 147.600 main 596 596 __O___________ -1 36.0000 147.600 1 29 994 9 37
1968209N25157 1968 50 WP MM NOT_NAMED 1968-07-31 03:00:00 TS 36.2884 148.167 main 631 631 __P___________ -1 36.2884 148.167 1 29 994 12 64
1968209N25157 1968 50 WP MM NOT_NAMED 1968-07-31 06:00:00 TS 36.5000 148.900 main 681 681 __O___________ -1 36.5000 148.900 1 29 994 12 68
1968209N25157 1968 50 WP MM NOT_NAMED 1968-07-31 09:00:00 TS 36.7274 149.503 main 716 716 __P___________ -1 36.7274 149.503 1 29 994 10 60
1968209N25157 1968 50 WP MM NOT_NAMED 1968-07-31 12:00:00 TS 37.0000 150.000 main 741 741 __O___________ -1 37.0000 150.000 1 29 994 9 48
1968209N25157 1968 50 WP MM NOT_NAMED 1968-07-31 15:00:00 TS 37.3472 150.353 main 761 738 __P___________ -1 37.3472 150.353 1 996 9 31
1968209N25157 1968 50 WP MM NOT_NAMED 1968-07-31 18:00:00 TS 37.8000 150.600 main 738 703 __O___________ -1 37.8000 150.600 0 998 11 19
1968209N25157 1968 50 WP MM NOT_NAMED 1968-07-31 21:00:00 TS 38.3677 150.807 main 694 654 __P___________ -1 38.3677 150.807 0 998 12 15
1968209N25157 1968 50 WP MM NOT_NAMED 1968-08-01 00:00:00 TS 39.0000 151.000 main 654 __O___________ -1 39.0000 151.000 0 998 13 13

Digital Typhoon Data and Search

About IBTrACS Database

This database is a web-friendly format of International Best Track Archive for Climate Stewardship (IBTrACS), a global best track data archive curated by NOAA dating back to 1842.

Updated: 2021-10-08